Time;durP1;ratioP1;P1;durP2;ratioP2;P2;SDS_P1;SDS_P2;PMS_P1;PMS_P2;Temp;Humidity;BMP_temperature;BMP_pressure;BME280_temperature;BME280_humidity;BME280_pressure;Samples;Min_cycle;Max_cycle;Signal;HPM_P1;HPM_P2
2024/01/03 00:00:34;;;;;;;0.20;0.20;;;;;;;14.36;77.40;98293.13;5111217;28;20077;-77
2024/01/03 00:03:00;;;;;;;0.22;0.22;;;;;;;14.20;77.78;98352.16;5111268;28;20028;-78
2024/01/03 00:05:38;;;;;;;0.50;0.50;;;;;;;15.24;75.82;98332.50;5111478;28;20038;-79
2024/01/03 00:08:11;;;;;;;0.28;0.28;;;;;;;13.45;83.49;98343.97;5103192;28;20155;-75
2024/01/03 00:10:39;;;;;;;0.30;0.30;;;;;;;13.02;84.44;98342.75;5112163;28;20087;-76
2024/01/03 00:13:31;;;;;;;0.25;0.25;;;;;;;14.16;79.89;98361.97;5112103;28;20019;-78
2024/01/03 00:15:59;;;;;;;;;;;;;;;13.81;80.40;98362.84;5112875;28;20011;-76
2024/01/03 00:18:50;;;;;;;0.32;0.32;;;;;;;13.70;80.05;98362.28;5112730;28;19918;-79
2024/01/03 00:21:19;;;;;;;0.30;0.30;;;;;;;13.46;80.63;98348.28;5112140;28;20028;-78
2024/01/03 00:23:52;;;;;;;0.20;0.20;;;;;;;13.56;79.50;98368.84;5111395;28;20040;-75
2024/01/03 00:26:19;;;;;;;0.10;0.10;;;;;;;13.19;78.62;98445.41;5105852;28;20031;-76
2024/01/03 00:28:44;;;;;;;0.20;0.20;;;;;;;13.13;77.08;98371.09;5111166;28;20499;-76
2024/01/03 00:31:31;;;;;;;0.30;0.30;;;;;;;13.60;75.86;98359.03;5111772;28;20029;-75
2024/01/03 00:33:57;;;;;;;0.30;0.30;;;;;;;13.23;76.25;98377.09;5028955;28;20068;-78
2024/01/03 00:36:22;;;;;;;0.20;0.20;;;;;;;13.54;75.24;98388.00;5030516;28;20434;-78
2024/01/03 00:38:48;;;;;;;0.20;0.20;;;;;;;13.59;74.77;98397.91;5028213;28;20120;-77
2024/01/03 00:41:32;;;;;;;0.30;0.30;;;;;;;13.65;74.61;98389.38;5028344;28;20220;-78
2024/01/03 00:43:57;;;;;;;0.30;0.30;;;;;;;13.30;75.13;98374.00;5012056;28;20038;-78
2024/01/03 00:46:23;;;;;;;0.38;0.38;;;;;;;13.84;73.61;98405.41;5028595;28;20044;-76
2024/01/03 00:48:48;;;;;;;0.32;0.32;;;;;;;13.74;74.93;98395.66;5014814;28;20514;-80
2024/01/03 00:51:14;;;;;;;0.47;0.47;;;;;;;13.96;72.94;98386.75;5028839;28;20049;-77
2024/01/03 00:53:39;;;;;;;0.20;0.20;;;;;;;13.04;75.78;98418.75;5029348;28;20151;-79
2024/01/03 00:56:05;;;;;;;0.20;0.20;;;;;;;13.80;73.24;98386.34;5030129;28;20034;-77
2024/01/03 00:58:30;;;;;;;0.20;0.20;;;;;;;13.70;74.78;98418.94;5028437;28;20041;-75
2024/01/03 01:00:56;;;;;;;0.30;0.30;;;;;;;13.81;74.32;98419.53;5028427;28;20373;-75
2024/01/03 01:03:22;;;;;;;0.25;0.25;;;;;;;13.58;74.97;98442.19;5029377;28;20029;-78
2024/01/03 01:05:47;;;;;;;0.35;0.35;;;;;;;13.32;75.58;98416.84;5028525;28;20125;-77
2024/01/03 01:08:13;;;;;;;0.30;0.30;;;;;;;13.46;75.46;98431.91;5012148;28;20037;-74
2024/01/03 01:10:38;;;;;;;0.25;0.25;;;;;;;13.55;75.11;98431.97;5039081;28;20184;-77
2024/01/03 01:13:03;;;;;;;0.30;0.30;;;;;;;13.84;73.90;98440.50;5112052;28;20050;-77
2024/01/03 01:15:29;;;;;;;0.40;0.40;;;;;;;14.30;72.54;98438.38;5112932;28;20115;-76
2024/01/03 01:17:54;;;;;;;0.35;0.35;;;;;;;13.93;72.30;98444.91;5115052;28;20027;-74
2024/01/03 01:20:20;;;;;;;0.30;0.30;;;;;;;14.74;69.03;98438.31;5115198;28;20088;-76
2024/01/03 01:22:45;;;;;;;0.40;0.40;;;;;;;13.41;74.46;98455.47;5093770;28;20036;-76
2024/01/03 01:25:10;;;;;;;0.40;0.40;;;;;;;14.28;72.33;98443.28;5095098;28;20140;-76
2024/01/03 01:27:36;;;;;;;0.20;0.20;;;;;;;13.91;73.46;98466.00;5095374;28;20043;-76
2024/01/03 01:30:01;;;;;;;0.30;0.30;;;;;;;14.16;72.87;98467.31;5095473;28;20123;-74
2024/01/03 01:32:26;;;;;;;0.28;0.28;;;;;;;15.13;69.93;98469.19;5115204;28;20035;-75
2024/01/03 01:34:52;;;;;;;0.50;0.50;;;;;;;14.26;73.05;98479.78;5115391;28;20035;-78
2024/01/03 01:37:17;;;;;;;0.30;0.30;;;;;;;15.22;71.79;98487.03;5097756;28;20065;-75
2024/01/03 01:39:44;;;;;;;0.30;0.30;;;;;;;14.52;74.06;98476.19;5095200;28;20024;-75
2024/01/03 01:42:10;;;;;;;0.30;0.30;;;;;;;14.09;76.60;98483.94;5112810;28;20088;-80
2024/01/03 01:44:35;;;;;;;0.32;0.32;;;;;;;14.46;76.03;98501.75;5108384;28;20476;-73
2024/01/03 01:47:11;;;;;;;0.40;0.40;;;;;;;14.34;77.24;98503.38;5081156;28;20138;-79
2024/01/03 01:49:39;;;;;;;0.20;0.20;;;;;;;14.06;78.64;98508.06;5097546;28;20534;-77
2024/01/03 01:52:07;;;;;;;0.30;0.30;;;;;;;14.17;78.16;98514.03;5115032;28;20510;-76
2024/01/03 01:54:33;;;;;;;0.40;0.40;;;;;;;13.72;79.89;98488.84;5114938;28;20046;-75
2024/01/03 01:57:37;;;;;;;0.32;0.32;;;;;;;14.64;78.18;98489.16;5114454;28;20059;-76
2024/01/03 02:00:03;;;;;;;0.30;0.30;;;;;;;14.11;78.46;98495.22;5094180;28;20031;-76
2024/01/03 02:02:31;;;;;;;0.10;0.10;;;;;;;14.18;77.94;98500.22;5105498;28;20459;-77
2024/01/03 02:04:57;;;;;;;0.43;0.43;;;;;;;14.32;80.14;98505.59;5099638;28;20571;-75
2024/01/03 02:07:24;;;;;;;0.20;0.20;;;;;;;13.69;81.11;98508.31;5089764;28;20044;-77
2024/01/03 02:09:50;;;;;;;0.20;0.20;;;;;;;14.47;78.24;98503.31;5088887;28;20519;-75
2024/01/03 02:12:15;;;;;;;0.30;0.30;;;;;;;13.86;80.54;98505.78;5102509;28;20035;-74
2024/01/03 02:14:41;;;;;;;0.40;0.40;;;;;;;14.56;78.12;98509.59;5114273;28;20046;-77
2024/01/03 02:17:06;;;;;;;0.30;0.30;;;;;;;14.47;80.23;98516.84;5080892;28;20111;-73
2024/01/03 02:19:32;;;;;;;0.50;0.50;;;;;;;14.10;80.18;98506.34;5110168;28;20449;-74
2024/01/03 02:22:00;;;;;;;0.30;0.30;;;;;;;14.09;81.77;98515.56;5099641;28;20098;-75
2024/01/03 02:24:25;;;;;;;0.20;0.20;;;;;;;14.74;77.66;98515.94;5107990;28;20073;-74
2024/01/03 02:26:51;;;;;;;0.30;0.30;;;;;;;14.80;78.23;98518.16;5106797;27;20711;-74
2024/01/03 02:29:16;;;;;;;0.20;0.20;;;;;;;14.52;77.81;98527.53;5110640;28;20038;-75
2024/01/03 02:31:41;;;;;;;0.30;0.30;;;;;;;15.13;76.68;98526.81;5108433;28;20027;-74
2024/01/03 02:34:06;;;;;;;0.28;0.28;;;;;;;14.58;77.13;98536.31;5113702;28;20024;-75
2024/01/03 02:36:32;;;;;;;0.28;0.28;;;;;;;14.37;78.27;98522.47;5103085;28;20097;-74
2024/01/03 02:38:58;;;;;;;0.30;0.30;;;;;;;14.17;77.63;98528.31;5107970;28;20039;-76
2024/01/03 02:42:03;;;;;;;0.32;0.32;;;;;;;15.03;75.35;98513.53;5103741;28;20520;-75
2024/01/03 02:44:28;;;;;;;0.28;0.28;;;;;;;14.30;75.50;98526.72;5103737;28;20043;-75
2024/01/03 02:46:55;;;;;;;0.20;0.20;;;;;;;14.56;74.59;98562.84;5099269;28;20040;-76
2024/01/03 02:49:20;;;;;;;0.20;0.20;;;;;;;14.47;74.15;98530.34;5093478;28;20136;-76
2024/01/03 02:51:45;;;;;;;0.30;0.30;;;;;;;14.60;71.95;98534.13;5097985;28;20503;-77
2024/01/03 02:54:11;;;;;;;0.28;0.28;;;;;;;15.10;70.57;98557.16;5113199;28;20050;-76
2024/01/03 02:56:39;;;;;;;0.50;0.50;;;;;;;14.52;73.20;98543.75;5113104;28;20056;-76
2024/01/03 02:59:05;;;;;;;0.22;0.22;;;;;;;14.54;71.62;98601.00;5094464;28;20122;-77
2024/01/03 03:01:30;;;;;;;0.30;0.30;;;;;;;14.67;70.59;98566.91;5096827;28;20471;-77
2024/01/03 03:03:56;;;;;;;0.25;0.25;;;;;;;14.81;71.18;98565.75;5089995;28;20032;-75
2024/01/03 03:06:21;;;;;;;0.30;0.30;;;;;;;15.08;69.56;98572.09;5092704;28;20062;-77
2024/01/03 03:08:46;;;;;;;0.30;0.30;;;;;;;15.05;70.32;98581.66;5103251;28;20139;-78
2024/01/03 03:11:12;;;;;;;0.40;0.40;;;;;;;14.60;71.69;98577.34;5112815;28;20075;-78
2024/01/03 03:13:38;;;;;;;0.20;0.20;;;;;;;14.49;71.88;98582.19;5093959;28;20396;-74
2024/01/03 03:16:05;;;;;;;0.30;0.30;;;;;;;14.36;72.86;98591.16;5112569;28;20027;-75
2024/01/03 03:18:30;;;;;;;0.45;0.45;;;;;;;14.44;72.67;98593.13;5113012;28;20036;-75
2024/01/03 03:20:56;;;;;;;0.20;0.20;;;;;;;14.25;72.92;98595.13;5106457;28;20131;-74
2024/01/03 03:23:21;;;;;;;0.30;0.30;;;;;;;13.96;73.49;98583.88;5095356;28;20036;-74
2024/01/03 03:25:46;;;;;;;0.35;0.35;;;;;;;14.80;70.68;98587.69;5107595;28;20119;-75
2024/01/03 03:28:12;;;;;;;0.38;0.38;;;;;;;14.33;71.69;98613.34;5100259;28;20051;-75
2024/01/03 03:30:37;;;;;;;0.30;0.30;;;;;;;14.53;71.09;98601.28;5112526;28;20404;-73
2024/01/03 03:33:02;;;;;;;0.30;0.30;;;;;;;14.62;70.29;98613.00;5097271;28;20082;-75
2024/01/03 03:35:28;;;;;;;0.30;0.30;;;;;;;14.61;69.85;98606.78;5108742;28;20036;-77
2024/01/03 03:37:54;;;;;;;0.40;0.40;;;;;;;14.38;70.42;98607.84;5096408;28;20031;-74
2024/01/03 03:40:19;;;;;;;0.20;0.20;;;;;;;14.79;69.23;98602.31;5102725;28;20043;-74
2024/01/03 03:42:46;;;;;;;0.20;0.20;;;;;;;14.45;68.51;98616.34;5091782;28;20077;-76
2024/01/03 03:45:11;;;;;;;0.20;0.20;;;;;;;14.45;67.85;98621.75;5108292;28;20518;-76
2024/01/03 03:47:37;;;;;;;0.22;0.22;;;;;;;14.95;67.14;98614.34;5091956;28;20036;-75
2024/01/03 03:50:03;;;;;;;0.20;0.20;;;;;;;14.85;66.40;98615.41;5098113;28;20035;-75
2024/01/03 03:52:28;;;;;;;0.30;0.30;;;;;;;14.44;67.88;98624.75;5100983;28;20052;-74
2024/01/03 03:54:53;;;;;;;0.30;0.30;;;;;;;14.52;67.45;98594.31;5096055;28;20032;-76
2024/01/03 03:57:57;;;;;;;0.30;0.30;;;;;;;14.61;68.10;98633.81;5111749;28;20039;-74
2024/01/03 04:00:23;;;;;;;0.20;0.20;;;;;;;14.81;68.27;98619.81;5102441;28;20040;-75
2024/01/03 04:02:48;;;;;;;0.30;0.30;;;;;;;14.67;70.17;98637.19;5091395;28;20483;-75
2024/01/03 04:05:14;;;;;;;0.30;0.30;;;;;;;15.06;69.05;98633.81;5107809;28;20059;-75
2024/01/03 04:07:39;;;;;;;0.20;0.20;;;;;;;14.53;70.16;98648.03;5083586;28;20116;-76
2024/01/03 04:10:05;;;;;;;0.40;0.40;;;;;;;14.48;71.19;98634.66;5098791;28;20032;-76
2024/01/03 04:12:49;;;;;;;0.25;0.25;;;;;;;14.70;71.08;98636.59;5093230;28;20061;-76
2024/01/03 04:15:15;;;;;;;0.30;0.30;;;;;;;14.48;71.26;98633.84;5111200;28;20039;-76
2024/01/03 04:17:40;;;;;;;0.30;0.30;;;;;;;14.17;73.40;98647.16;5090912;28;20427;-76
2024/01/03 04:20:06;;;;;;;0.40;0.40;;;;;;;14.80;71.11;98647.19;5095423;28;20097;-75
2024/01/03 04:22:32;;;;;;;0.15;0.15;;;;;;;14.54;71.78;98662.38;5101783;28;20487;-75
2024/01/03 04:24:57;;;;;;;0.20;0.20;;;;;;;14.46;73.29;98650.38;5111372;28;20037;-73
2024/01/03 04:27:22;;;;;;;0.20;0.20;;;;;;;14.11;73.95;98659.19;5110468;28;20475;-74
2024/01/03 04:29:48;;;;;;;0.40;0.40;;;;;;;14.66;72.03;98657.22;5090955;28;20056;-74
2024/01/03 04:32:13;;;;;;;0.30;0.30;;;;;;;14.35;73.06;98654.38;5109999;28;20130;-73
2024/01/03 04:34:40;;;;;;;0.20;0.20;;;;;;;14.51;72.39;98663.75;5099256;28;20115;-74
2024/01/03 04:37:05;;;;;;;0.30;0.30;;;;;;;15.01;71.32;98671.81;5090907;28;20088;-75
2024/01/03 04:39:31;;;;;;;0.38;0.38;;;;;;;14.77;73.33;98674.81;5101618;28;20635;-75
2024/01/03 04:42:33;;;;;;;0.30;0.30;;;;;;;15.34;73.05;98675.88;5096873;28;20110;-74
2024/01/03 04:44:58;;;;;;;0.20;0.20;;;;;;;14.63;74.55;98677.56;5110948;28;20173;-75
2024/01/03 04:47:24;;;;;;;0.20;0.20;;;;;;;14.62;72.70;98673.25;5092619;28;20543;-73
2024/01/03 04:49:49;;;;;;;0.10;0.10;;;;;;;14.14;73.48;98691.00;5105691;28;20060;-74
2024/01/03 04:52:14;;;;;;;0.40;0.40;;;;;;;14.33;72.29;98693.63;5102889;28;20078;-76
2024/01/03 04:54:39;;;;;;;0.30;0.30;;;;;;;14.50;71.61;98678.41;5085183;28;20054;-74
2024/01/03 04:57:05;;;;;;;0.30;0.30;;;;;;;14.83;70.90;98692.53;5095314;28;20055;-75
2024/01/03 04:59:30;;;;;;;0.28;0.28;;;;;;;14.39;71.96;98708.59;5111525;28;20091;-75
2024/01/03 05:01:56;;;;;;;0.20;0.20;;;;;;;14.62;72.39;98689.47;5102740;28;20172;-75
2024/01/03 05:04:21;;;;;;;0.40;0.40;;;;;;;14.57;71.48;98686.88;5114653;28;20066;-77
2024/01/03 05:06:48;;;;;;;0.30;0.30;;;;;;;14.39;72.91;98700.50;5093991;28;20142;-74
2024/01/03 05:09:13;;;;;;;0.30;0.30;;;;;;;14.95;70.87;98681.97;5113929;28;20395;-75
2024/01/03 05:12:12;;;;;;;0.30;0.30;;;;;;;15.06;71.76;98682.50;5113930;28;20031;-75
2024/01/03 05:14:38;;;;;;;0.25;0.25;;;;;;;15.24;69.38;98692.38;5114111;28;20126;-74
2024/01/03 05:17:03;;;;;;;0.32;0.32;;;;;;;14.92;71.05;98682.56;5114323;28;20115;-75
2024/01/03 05:19:29;;;;;;;0.30;0.30;;;;;;;14.20;73.91;98716.00;5096413;28;20050;-73
2024/01/03 05:21:54;;;;;;;0.40;0.40;;;;;;;14.62;73.14;98700.28;5097070;28;20541;-76
2024/01/03 05:24:20;;;;;;;0.30;0.30;;;;;;;14.59;72.17;98703.59;5103086;28;20052;-74
2024/01/03 05:26:46;;;;;;;0.20;0.20;;;;;;;14.63;72.56;98706.47;5083061;28;20100;-76
2024/01/03 05:29:11;;;;;;;0.28;0.28;;;;;;;15.07;70.71;98701.16;5110479;28;20054;-76
2024/01/03 05:31:37;;;;;;;0.28;0.28;;;;;;;14.93;70.69;98712.03;5110899;28;20028;-76
2024/01/03 05:34:02;;;;;;;0.30;0.30;;;;;;;15.05;69.85;98699.88;5100349;28;20062;-74
2024/01/03 05:36:27;;;;;;;0.40;0.40;;;;;;;14.81;69.96;98698.25;5103860;28;20027;-74
2024/01/03 05:38:53;;;;;;;0.30;0.30;;;;;;;15.05;69.47;98716.91;5107223;28;20059;-74
2024/01/03 05:41:18;;;;;;;0.20;0.20;;;;;;;14.89;70.02;98721.06;5105026;28;20042;-73
2024/01/03 05:43:44;;;;;;;0.40;0.40;;;;;;;15.12;69.05;98765.16;5097258;28;20167;-74
2024/01/03 05:46:09;;;;;;;0.25;0.25;;;;;;;15.21;68.72;98731.69;5113724;28;20059;-75
2024/01/03 05:48:35;;;;;;;0.20;0.20;;;;;;;15.02;68.67;98727.53;5113886;28;20030;-74
2024/01/03 05:51:00;;;;;;;0.30;0.30;;;;;;;14.76;71.06;98730.00;5098686;28;20132;-75
2024/01/03 05:53:25;;;;;;;0.20;0.20;;;;;;;15.30;68.82;98723.59;5093454;28;20111;-74
2024/01/03 05:55:51;;;;;;;0.30;0.30;;;;;;;14.79;70.19;98734.78;5092124;28;20044;-74
2024/01/03 05:58:16;;;;;;;0.30;0.30;;;;;;;15.08;69.30;98734.41;5101547;28;20042;-75
2024/01/03 06:00:41;;;;;;;0.40;0.40;;;;;;;15.23;69.21;98732.19;5107475;28;20200;-74
2024/01/03 06:03:07;;;;;;;0.30;0.30;;;;;;;15.26;69.86;98734.25;5097003;28;20043;-76
2024/01/03 06:05:32;;;;;;;0.30;0.30;;;;;;;14.74;70.74;98733.00;5108650;28;20062;-76
2024/01/03 06:07:58;;;;;;;0.30;0.30;;;;;;;14.86;70.45;98737.88;5098559;28;20365;-75
2024/01/03 06:10:23;;;;;;;0.30;0.30;;;;;;;14.60;71.84;98745.72;5102828;28;20492;-75
2024/01/03 06:12:48;;;;;;;0.20;0.20;;;;;;;14.70;72.45;98742.81;5106000;28;20055;-74
2024/01/03 06:15:14;;;;;;;0.30;0.30;;;;;;;14.98;71.35;98754.38;5098833;28;20235;-76
2024/01/03 06:17:39;;;;;;;0.40;0.40;;;;;;;14.53;74.26;98729.13;5096226;28;20039;-76
2024/01/03 06:20:05;;;;;;;0.20;0.20;;;;;;;14.82;72.67;98745.00;5108077;28;20079;-76
2024/01/03 06:22:31;;;;;;;0.40;0.40;;;;;;;15.33;70.26;98745.44;5112650;28;20147;-76
2024/01/03 06:24:56;;;;;;;0.20;0.20;;;;;;;15.09;71.58;98747.66;5092933;28;20126;-75
2024/01/03 06:27:34;;;;;;;0.30;0.30;;;;;;;15.05;72.17;98743.16;5113295;28;20114;-75
2024/01/03 06:29:59;;;;;;;0.28;0.28;;;;;;;14.92;73.04;98769.91;5106476;28;20133;-76
2024/01/03 06:32:24;;;;;;;0.30;0.30;;;;;;;14.77;73.76;98735.09;5102404;28;20123;-74
2024/01/03 06:34:50;;;;;;;0.30;0.30;;;;;;;14.39;75.19;98746.44;5105541;28;20143;-75
2024/01/03 06:37:15;;;;;;;0.20;0.20;;;;;;;15.14;72.26;98744.81;5095795;28;20035;-75
2024/01/03 06:39:40;;;;;;;0.28;0.28;;;;;;;15.15;72.11;98754.53;5096408;28;20055;-74
2024/01/03 06:42:06;;;;;;;0.28;0.28;;;;;;;14.76;74.58;98751.63;5103541;28;20070;-74
2024/01/03 06:44:31;;;;;;;0.20;0.20;;;;;;;15.26;72.39;98752.38;5100860;28;20036;-74
2024/01/03 06:46:57;;;;;;;0.30;0.30;;;;;;;15.50;71.04;98758.34;5106215;28;20519;-75
2024/01/03 06:49:22;;;;;;;0.20;0.20;;;;;;;15.40;72.48;98755.84;5110820;28;20040;-74
2024/01/03 06:51:48;;;;;;;0.30;0.30;;;;;;;15.83;70.01;98759.66;5106517;28;20027;-75
2024/01/03 06:54:13;;;;;;;0.20;0.20;;;;;;;15.54;70.94;98756.63;5111726;28;20031;-75
2024/01/03 06:56:38;;;;;;;0.30;0.30;;;;;;;15.40;71.08;98764.78;5110901;28;20057;-77
2024/01/03 06:59:04;;;;;;;0.20;0.20;;;;;;;15.58;70.96;98753.00;5111471;28;20039;-76
2024/01/03 07:01:30;;;;;;;0.30;0.30;;;;;;;15.90;69.32;98776.28;5111907;28;20031;-74
2024/01/03 07:03:58;;;;;;;0.30;0.30;;;;;;;15.64;71.14;98775.31;5111812;28;20112;-72
2024/01/03 07:06:23;;;;;;;0.20;0.20;;;;;;;16.03;69.67;98761.06;5111791;28;20411;-74
2024/01/03 07:08:49;;;;;;;0.20;0.20;;;;;;;15.30;71.41;98772.31;5111437;28;20036;-75
2024/01/03 07:11:15;;;;;;;0.32;0.32;;;;;;;14.64;74.09;98770.28;5110887;28;20031;-74
2024/01/03 07:13:41;;;;;;;0.30;0.30;;;;;;;14.95;73.34;98774.72;5110455;28;20032;-74
2024/01/03 07:16:06;;;;;;;0.15;0.15;;;;;;;14.69;73.92;98764.75;5101377;28;20115;-75
2024/01/03 07:18:31;;;;;;;0.20;0.20;;;;;;;14.80;73.96;98782.38;5096028;28;20051;-74
2024/01/03 07:20:57;;;;;;;0.30;0.30;;;;;;;14.57;76.36;98781.47;5111368;28;20128;-74
2024/01/03 07:23:22;;;;;;;0.40;0.40;;;;;;;14.37;77.82;98779.16;5111431;28;20042;-75
2024/01/03 07:25:47;;;;;;;0.20;0.20;;;;;;;14.54;78.55;98781.28;5110840;28;20146;-75
2024/01/03 07:28:14;;;;;;;0.35;0.35;;;;;;;14.89;77.26;98783.25;5111068;28;20030;-74
2024/01/03 07:30:39;;;;;;;0.45;0.45;;;;;;;14.72;77.18;98794.69;5111789;28;20015;-76
2024/01/03 07:33:05;;;;;;;0.30;0.30;;;;;;;14.10;79.30;98806.94;5111378;28;20038;-75
2024/01/03 07:35:30;;;;;;;0.38;0.38;;;;;;;14.56;77.97;98808.81;5111461;28;20123;-75
2024/01/03 07:37:55;;;;;;;0.50;0.50;;;;;;;14.62;76.81;98807.63;5096269;28;20057;-75
2024/01/03 07:40:21;;;;;;;0.32;0.32;;;;;;;14.27;78.75;98805.56;5109426;28;20066;-76
2024/01/03 07:42:46;;;;;;;0.30;0.30;;;;;;;14.32;78.48;98817.13;5091740;28;20032;-75
2024/01/03 07:45:11;;;;;;;0.28;0.28;;;;;;;14.31;79.18;98826.31;5091029;28;20051;-74
2024/01/03 07:47:37;;;;;;;0.20;0.20;;;;;;;14.16;79.36;98806.84;5090804;28;20036;-74
2024/01/03 07:50:02;;;;;;;0.30;0.30;;;;;;;14.70;76.80;98807.69;5091656;28;20032;-74
2024/01/03 07:52:28;;;;;;;0.40;0.40;;;;;;;14.09;79.92;98821.53;5091487;28;20779;-75
2024/01/03 07:54:54;;;;;;;0.40;0.40;;;;;;;13.86;79.00;98827.88;5091785;28;20517;-73
2024/01/03 07:57:19;;;;;;;0.30;0.30;;;;;;;13.89;79.88;98826.50;5099477;28;20042;-74
2024/01/03 07:59:45;;;;;;;0.10;0.10;;;;;;;14.57;77.67;98821.22;5111644;28;20047;-74
2024/01/03 08:02:14;;;;;;;0.20;0.20;;;;;;;14.29;78.72;98831.19;5092427;28;20062;-74
2024/01/03 08:04:40;;;;;;;0.30;0.30;;;;;;;13.70;79.73;98831.13;5111960;28;20043;-74
2024/01/03 08:07:06;;;;;;;0.20;0.20;;;;;;;14.67;76.21;98829.13;5111373;28;20047;-75
2024/01/03 08:09:32;;;;;;;0.30;0.30;;;;;;;14.10;78.94;98831.25;5111890;28;20494;-74
2024/01/03 08:11:58;;;;;;;0.30;0.30;;;;;;;14.21;79.42;98831.06;5111872;28;20039;-75
2024/01/03 08:14:24;;;;;;;0.30;0.30;;;;;;;14.13;79.11;98848.78;5111941;28;20055;-76
2024/01/03 08:16:49;;;;;;;0.25;0.25;;;;;;;14.34;78.37;98857.34;5111745;28;20043;-73
2024/01/03 08:19:15;;;;;;;0.30;0.30;;;;;;;14.77;77.58;98837.84;5111925;28;20063;-75
2024/01/03 08:21:40;;;;;;;0.40;0.40;;;;;;;14.53;77.18;98853.47;5112404;28;20373;-77
2024/01/03 08:24:06;;;;;;;0.25;0.25;;;;;;;14.60;76.76;98847.66;5111429;28;20587;-77
2024/01/03 08:26:32;;;;;;;0.35;0.35;;;;;;;14.65;76.34;98850.25;5111362;28;20138;-77
2024/01/03 08:28:57;;;;;;;0.30;0.30;;;;;;;14.42;76.63;98849.34;5111558;28;20035;-74
2024/01/03 08:31:23;;;;;;;0.45;0.45;;;;;;;13.90;77.79;98838.88;5092772;28;20058;-77
2024/01/03 08:33:48;;;;;;;0.20;0.20;;;;;;;15.15;73.89;98856.56;5093574;28;20035;-76
2024/01/03 08:36:15;;;;;;;0.40;0.40;;;;;;;14.74;74.86;98856.59;5111363;28;20400;-75
2024/01/03 08:38:41;;;;;;;0.40;0.40;;;;;;;14.52;76.38;98859.97;5093297;28;20388;-75
2024/01/03 08:41:17;;;;;;;0.22;0.22;;;;;;;15.27;73.76;98856.84;5103998;28;20492;-77
2024/01/03 08:43:42;;;;;;;0.20;0.20;;;;;;;15.01;73.67;98861.16;5091468;28;20036;-76
2024/01/03 08:46:08;;;;;;;0.20;0.20;;;;;;;14.56;75.55;98873.69;5091277;28;20497;-76
2024/01/03 08:48:34;;;;;;;0.25;0.25;;;;;;;14.93;73.86;98868.09;5090523;28;20028;-76
2024/01/03 08:50:59;;;;;;;0.20;0.20;;;;;;;14.72;75.00;98870.38;5091066;28;20040;-75
2024/01/03 08:53:24;;;;;;;0.20;0.20;;;;;;;14.35;76.30;98877.88;5098704;28;20170;-76
2024/01/03 08:55:50;;;;;;;0.20;0.20;;;;;;;14.13;77.40;98881.97;5111538;28;20126;-75
2024/01/03 08:58:15;;;;;;;0.30;0.30;;;;;;;14.66;75.98;98890.50;5111401;28;20027;-75
2024/01/03 09:00:43;;;;;;;0.30;0.30;;;;;;;14.30;78.20;98880.63;5093092;28;20062;-74
2024/01/03 09:03:08;;;;;;;0.38;0.38;;;;;;;14.36;77.53;98887.56;5107773;28;20651;-74
2024/01/03 09:05:34;;;;;;;0.30;0.30;;;;;;;14.84;75.52;98892.31;5091969;28;20067;-69
2024/01/03 09:07:59;;;;;;;0.30;0.30;;;;;;;14.81;75.77;98889.41;5110168;28;20139;-70
2024/01/03 09:10:24;;;;;;;0.20;0.20;;;;;;;14.83;75.85;98893.44;5106604;28;20149;-70
2024/01/03 09:12:50;;;;;;;0.30;0.30;;;;;;;14.78;75.56;98904.34;5110516;28;20439;-71
2024/01/03 09:15:15;;;;;;;0.30;0.30;;;;;;;14.74;76.38;98897.91;5106903;28;20403;-71
2024/01/03 09:17:43;;;;;;;0.20;0.20;;;;;;;15.57;72.57;98894.06;5089688;28;20107;-70
2024/01/03 09:20:12;;;;;;;0.28;0.28;;;;;;;14.74;74.13;98895.22;5088332;28;20450;-69
2024/01/03 09:22:38;;;;;;;0.30;0.30;;;;;;;15.41;73.71;98890.88;5102349;28;20031;-69
2024/01/03 09:25:04;;;;;;;0.30;0.30;;;;;;;15.01;74.49;98897.16;5106200;28;20023;-70
2024/01/03 09:27:29;;;;;;;0.30;0.30;;;;;;;14.83;75.09;98914.25;5110608;28;20188;-69
2024/01/03 09:29:55;;;;;;;0.13;0.13;;;;;;;15.08;73.90;98904.84;5103400;28;20495;-69
2024/01/03 09:32:21;;;;;;;0.20;0.20;;;;;;;15.06;75.02;98905.13;5101063;28;20047;-72
2024/01/03 09:34:46;;;;;;;0.30;0.30;;;;;;;14.94;75.00;98911.06;5101190;28;20031;-72
2024/01/03 09:37:12;;;;;;;0.25;0.25;;;;;;;14.76;77.07;98911.94;5111221;28;20023;-70
2024/01/03 09:39:39;;;;;;;0.43;0.43;;;;;;;15.08;74.60;98904.84;5095511;28;20040;-70
2024/01/03 09:42:05;;;;;;;0.32;0.32;;;;;;;15.39;73.44;98913.94;5113546;28;20500;-71
2024/01/03 09:44:30;;;;;;;0.40;0.40;;;;;;;15.37;73.50;98914.22;5112951;28;20138;-68
2024/01/03 09:46:56;;;;;;;0.10;0.10;;;;;;;15.16;74.79;98915.75;5113482;28;20398;-70
2024/01/03 09:49:21;;;;;;;0.20;0.20;;;;;;;15.04;76.20;98920.88;5113008;28;20118;-70
2024/01/03 09:51:47;;;;;;;0.30;0.30;;;;;;;14.95;76.15;98926.19;5094193;28;20124;-70
2024/01/03 09:54:13;;;;;;;0.30;0.30;;;;;;;14.82;77.15;98926.97;5113688;28;20055;-70
2024/01/03 09:56:40;;;;;;;0.40;0.40;;;;;;;14.23;79.48;98945.81;5113514;28;20391;-70
2024/01/03 09:59:06;;;;;;;0.40;0.40;;;;;;;15.04;76.96;98937.09;5113292;28;20521;-69
2024/01/03 10:01:32;;;;;;;0.22;0.22;;;;;;;14.03;80.30;98922.63;5113375;28;20039;-70
2024/01/03 10:03:58;;;;;;;0.30;0.30;;;;;;;14.21;80.57;98925.63;5113222;28;20111;-71
2024/01/03 10:06:23;;;;;;;0.30;0.30;;;;;;;14.90;78.03;98933.59;5113541;28;20051;-71
2024/01/03 10:09:03;;;;;;;0.20;0.20;;;;;;;14.55;80.19;98932.34;5113247;28;20123;-70
2024/01/03 10:11:28;;;;;;;0.43;0.43;;;;;;;14.32;80.85;98932.47;5113396;28;20032;-71
2024/01/03 10:13:55;;;;;;;0.30;0.30;;;;;;;14.50;79.55;98935.16;5112947;28;20035;-69
2024/01/03 10:16:26;;;;;;;0.40;0.40;;;;;;;14.90;77.77;98934.41;5104943;28;20044;-70
2024/01/03 10:19:08;;;;;;;0.25;0.25;;;;;;;14.35;79.80;98940.00;5103927;28;20023;-70
2024/01/03 10:21:35;;;;;;;0.20;0.20;;;;;;;14.42;79.28;98943.13;5091896;28;20054;-70
2024/01/03 10:24:06;;;;;;;0.30;0.30;;;;;;;15.02;77.21;98927.72;5112826;28;20043;-70
2024/01/03 10:26:32;;;;;;;0.20;0.20;;;;;;;14.91;77.24;98932.50;5112710;28;20032;-69
2024/01/03 10:29:10;;;;;;;0.40;0.40;;;;;;;15.27;77.06;98952.31;5112279;28;20062;-70
2024/01/03 10:31:36;;;;;;;0.40;0.40;;;;;;;15.12;77.89;98943.72;5106235;28;20130;-71
2024/01/03 10:34:04;;;;;;;0.30;0.30;;;;;;;14.96;78.15;98941.31;5105754;28;20042;-70
2024/01/03 10:36:32;;;;;;;0.30;0.30;;;;;;;14.90;79.33;98931.69;5092734;28;20464;-69
2024/01/03 10:38:59;;;;;;;0.20;0.20;;;;;;;14.83;78.60;98933.19;5073470;28;20075;-72
2024/01/03 10:41:25;;;;;;;0.20;0.20;;;;;;;14.49;79.29;98938.94;5094689;28;20197;-70
2024/01/03 10:43:51;;;;;;;0.20;0.20;;;;;;;14.29;80.59;98935.78;5112446;28;20052;-71
2024/01/03 10:46:18;;;;;;;0.30;0.30;;;;;;;14.20;80.94;98951.03;5112010;28;20048;-71
2024/01/03 10:48:44;;;;;;;0.20;0.20;;;;;;;15.21;77.22;98944.63;5112643;28;20038;-69
2024/01/03 10:51:13;;;;;;;0.40;0.40;;;;;;;14.76;78.35;98941.69;5109111;28;20043;-70
2024/01/03 10:53:44;;;;;;;0.22;0.22;;;;;;;14.43;80.06;98948.22;5112197;28;20486;-72
2024/01/03 10:56:10;;;;;;;;;;;;;;;14.36;80.04;98955.13;5112760;28;20040;-70
2024/01/03 10:58:39;;;;;;;0.20;0.20;;;;;;;14.43;80.17;98944.72;5102037;28;20491;-71
2024/01/03 11:01:23;;;;;;;0.20;0.20;;;;;;;14.69;79.09;98954.00;5101032;28;20039;-72
2024/01/03 11:04:06;;;;;;;0.40;0.40;;;;;;;14.54;80.93;98941.56;5109000;28;20046;-72
2024/01/03 11:06:51;;;;;;;0.28;0.28;;;;;;;14.23;80.59;98950.44;5109762;28;20055;-72
2024/01/03 11:09:18;;;;;;;0.20;0.20;;;;;;;14.63;81.28;98939.78;5090918;28;20044;-74
2024/01/03 11:11:44;;;;;;;0.30;0.30;;;;;;;14.38;81.41;98942.91;5095200;27;20486;-73
2024/01/03 11:14:24;;;;;;;0.35;0.35;;;;;;;15.18;80.22;98939.81;5114377;27;20039;-73
2024/01/03 11:16:50;;;;;;;0.30;0.30;;;;;;;15.17;79.37;98947.16;5109567;28;20122;-73
2024/01/03 11:19:29;;;;;;;0.20;0.20;;;;;;;14.48;81.19;98942.75;5111655;28;20523;-73
2024/01/03 11:21:55;;;;;;;0.30;0.30;;;;;;;14.32;81.63;98946.00;5089397;27;20019;-75
2024/01/03 11:24:20;;;;;;;0.45;0.45;;;;;;;14.35;80.12;98938.09;5111330;28;20641;-75
2024/01/03 11:26:58;;;;;;;0.20;0.20;;;;;;;14.43;80.57;98948.22;5107791;28;21006;-72
2024/01/03 11:32:04;;;;;;;0.30;0.30;;;;;;;14.47;80.10;98943.84;5107925;28;20081;-69
2024/01/03 11:34:40;;;;;;;0.32;0.32;;;;;;;14.50;79.79;98955.97;5112436;27;20031;-72
2024/01/03 11:37:26;;;;;;;0.20;0.20;;;;;;;14.68;79.27;98934.25;5110645;28;20079;-70